Time;durP1;ratioP1;P1;durP2;ratioP2;P2;SDS_P1;SDS_P2;PMS_P1;PMS_P2;Temp;Humidity;BMP_temperature;BMP_pressure;BME280_temperature;BME280_humidity;BME280_pressure;Samples;Min_cycle;Max_cycle;Signal;HPM_P1;HPM_P2
2021/04/02 00:00:30;;;;;;;20.23;17.77;;;5.50;99.90;;;;;;4902855;29;20056;-77
2021/04/02 00:02:56;;;;;;;21.25;18.98;;;5.50;99.90;;;;;;4901203;29;20148;-77
2021/04/02 00:05:23;;;;;;;26.45;19.30;;;5.50;99.90;;;;;;4897361;29;20049;-78
2021/04/02 00:07:50;;;;;;;25.45;20.52;;;5.60;99.90;;;;;;4895182;29;20056;-77
2021/04/02 00:10:18;;;;;;;24.40;18.95;;;5.60;99.90;;;;;;4902895;29;20074;-79
2021/04/02 00:12:46;;;;;;;32.05;19.73;;;5.60;99.90;;;;;;4902005;29;20127;-79
2021/04/02 00:15:20;;;;;;;22.13;18.63;;;5.70;99.90;;;;;;4885860;29;20044;-78
2021/04/02 00:17:51;;;;;;;24.20;18.63;;;5.80;99.90;;;;;;4918581;29;20048;-79
2021/04/02 00:20:18;;;;;;;24.25;18.98;;;5.80;99.90;;;;;;4902327;29;20139;-78
2021/04/02 00:22:45;;;;;;;22.27;18.98;;;5.90;99.90;;;;;;4886095;29;20076;-79
2021/04/02 00:25:13;;;;;;;21.50;18.05;;;5.90;99.90;;;;;;4884384;29;20099;-78
2021/04/02 00:27:41;;;;;;;26.25;20.42;;;5.90;99.90;;;;;;4915973;29;20087;-80
2021/04/02 00:30:14;;;;;;;21.33;19.02;;;5.80;99.90;;;;;;4900798;29;20827;-78
2021/04/02 00:32:41;;;;;;;21.65;19.48;;;5.80;99.90;;;;;;4897818;29;20071;-78
2021/04/02 00:35:10;;;;;;;22.30;19.52;;;5.80;99.90;;;;;;4914365;29;20139;-78
2021/04/02 00:37:37;;;;;;;27.60;20.50;;;5.90;99.90;;;;;;4870210;29;20048;-78
2021/04/02 00:40:08;;;;;;;21.10;18.70;;;5.90;99.90;;;;;;4898314;29;20540;-77
2021/04/02 00:42:35;;;;;;;21.88;19.52;;;6.00;99.90;;;;;;4916842;29;20123;-79
2021/04/02 00:45:02;;;;;;;22.55;20.02;;;6.00;99.90;;;;;;4917115;29;20511;-78
2021/04/02 00:47:28;;;;;;;23.52;20.42;;;6.00;99.90;;;;;;4932678;29;20068;-78
2021/04/02 00:49:54;;;;;;;25.83;21.42;;;5.90;99.90;;;;;;4917197;29;20163;-78
2021/04/02 00:52:21;;;;;;;22.02;19.90;;;6.00;99.90;;;;;;4883041;29;20060;-78
2021/04/02 00:54:47;;;;;;;23.67;21.17;;;6.00;99.90;;;;;;4915790;29;20048;-79
2021/04/02 00:57:13;;;;;;;24.05;20.55;;;6.10;99.90;;;;;;4900540;29;20084;-79
2021/04/02 00:59:42;;;;;;;23.70;21.27;;;6.10;99.90;;;;;;4884548;29;20060;-79
2021/04/02 01:02:08;;;;;;;22.05;20.02;;;6.10;99.90;;;;;;4908330;29;20060;-79
2021/04/02 01:04:37;;;;;;;23.92;21.25;;;6.10;99.90;;;;;;4880327;29;20112;-78
2021/04/02 01:07:04;;;;;;;24.42;21.92;;;6.10;99.90;;;;;;4876768;29;20053;-78
2021/04/02 01:09:30;;;;;;;22.40;19.85;;;6.20;99.90;;;;;;4921769;29;20051;-78
2021/04/02 01:11:57;;;;;;;22.85;20.27;;;6.10;99.90;;;;;;4901765;29;20091;-79
2021/04/02 01:14:23;;;;;;;23.48;21.13;;;6.10;99.90;;;;;;4900360;29;20163;-78
2021/04/02 01:16:50;;;;;;;26.70;21.08;;;6.10;99.90;;;;;;4879969;29;20544;-78
2021/04/02 01:19:28;;;;;;;23.65;21.02;;;6.10;99.90;;;;;;4896096;29;20052;-79
2021/04/02 01:22:06;;;;;;;24.35;21.95;;;6.10;99.90;;;;;;4889308;29;20122;-78
2021/04/02 01:25:07;;;;;;;22.13;20.13;;;6.10;99.90;;;;;;4908421;29;20044;-78
2021/04/02 01:27:43;;;;;;;21.42;19.35;;;6.20;99.90;;;;;;4867987;29;20136;-78
2021/04/02 01:30:10;;;;;;;21.13;19.30;;;6.00;99.90;;;;;;4871909;29;20049;-78
2021/04/02 01:32:41;;;;;;;20.90;19.00;;;5.90;99.90;;;;;;4895357;29;20044;-78
2021/04/02 01:35:34;;;;;;;21.33;19.45;;;5.90;99.90;;;;;;4908048;29;20143;-78
2021/04/02 01:38:19;;;;;;;20.75;18.85;;;5.90;99.90;;;;;;4893122;29;20060;-78
2021/04/02 01:40:51;;;;;;;22.40;20.38;;;5.90;99.90;;;;;;4906700;29;20143;-78
2021/04/02 01:43:28;;;;;;;20.58;18.80;;;6.00;99.90;;;;;;4892031;29;20048;-78
2021/04/02 01:45:55;;;;;;;21.00;19.20;;;6.00;99.90;;;;;;4904260;29;20135;-78
2021/04/02 01:48:24;;;;;;;19.33;17.73;;;6.00;99.90;;;;;;4903243;29;20091;-78
2021/04/02 01:50:53;;;;;;;20.33;18.63;;;5.90;99.90;;;;;;4882678;29;20056;-78
2021/04/02 01:53:24;;;;;;;21.00;18.95;;;6.00;99.90;;;;;;4896011;29;20061;-78
2021/04/02 01:55:53;;;;;;;21.27;19.50;;;6.10;99.90;;;;;;4904138;29;20131;-78
2021/04/02 01:58:22;;;;;;;20.75;18.80;;;6.10;99.90;;;;;;4879126;29;21404;-79
2021/04/02 02:00:53;;;;;;;21.17;19.10;;;6.10;99.90;;;;;;4878561;29;20067;-78
2021/04/02 02:03:27;;;;;;;21.15;19.35;;;6.20;99.90;;;;;;4885850;29;20647;-77
2021/04/02 02:05:59;;;;;;;22.05;20.30;;;6.30;99.90;;;;;;4894415;29;20071;-78
2021/04/02 02:08:40;;;;;;;22.23;20.17;;;6.50;99.90;;;;;;4905550;29;20544;-79
2021/04/02 02:11:16;;;;;;;20.65;18.95;;;6.50;99.90;;;;;;4880565;29;20599;-79
2021/04/02 02:13:52;;;;;;;21.30;19.57;;;6.60;99.90;;;;;;4913344;29;20112;-78
2021/04/02 02:16:27;;;;;;;20.90;19.15;;;6.60;99.90;;;;;;4896366;29;20059;-78
2021/04/02 02:18:58;;;;;;;20.48;18.45;;;6.70;99.90;;;;;;4881398;29;20071;-78
2021/04/02 02:21:27;;;;;;;22.35;20.33;;;6.60;99.90;;;;;;4898783;29;20056;-78
2021/04/02 02:23:57;;;;;;;21.70;19.73;;;6.60;99.90;;;;;;4883326;29;20091;-77
2021/04/02 02:26:26;;;;;;;21.42;19.60;;;6.60;99.90;;;;;;4881658;29;20062;-77
2021/04/02 02:28:55;;;;;;;20.60;18.90;;;6.40;99.90;;;;;;4883586;29;20663;-78
2021/04/02 02:31:23;;;;;;;19.60;17.77;;;6.40;99.90;;;;;;4896734;29;20151;-78
2021/04/02 02:33:49;;;;;;;19.67;17.77;;;6.40;99.90;;;;;;4902159;29;20131;-78
2021/04/02 02:36:27;;;;;;;19.10;17.48;;;6.40;99.90;;;;;;4897699;29;20143;-79
2021/04/02 02:38:55;;;;;;;19.17;17.63;;;6.30;99.90;;;;;;4911387;29;20452;-79
2021/04/02 02:41:26;;;;;;;19.17;17.67;;;6.30;99.90;;;;;;4878555;29;20147;-78
2021/04/02 02:43:54;;;;;;;20.70;18.95;;;6.40;99.90;;;;;;4879678;29;20148;-77
2021/04/02 02:46:24;;;;;;;19.65;17.83;;;6.50;99.90;;;;;;4879359;29;20058;-78
2021/04/02 02:48:55;;;;;;;18.25;16.73;;;6.40;99.90;;;;;;4890203;29;20052;-78
2021/04/02 02:51:26;;;;;;;19.80;17.92;;;6.40;99.90;;;;;;4901670;29;20061;-78
2021/04/02 02:53:53;;;;;;;20.50;18.38;;;6.30;99.90;;;;;;4864421;29;20056;-78
2021/04/02 02:56:20;;;;;;;20.15;18.35;;;6.40;99.90;;;;;;4894210;29;20051;-78
2021/04/02 02:58:51;;;;;;;19.38;17.83;;;6.40;99.90;;;;;;4863919;29;20128;-78
2021/04/02 03:01:19;;;;;;;21.00;18.95;;;6.30;99.90;;;;;;4878715;29;20052;-78
2021/04/02 03:03:48;;;;;;;20.10;18.60;;;6.40;99.90;;;;;;4890980;29;20135;-77
2021/04/02 03:06:17;;;;;;;19.80;18.15;;;6.40;99.90;;;;;;4879207;29;20064;-78
2021/04/02 03:08:46;;;;;;;20.67;18.75;;;6.40;99.90;;;;;;4864672;29;20122;-78
2021/04/02 03:11:19;;;;;;;19.42;17.80;;;6.30;99.90;;;;;;4877739;29;20779;-78
2021/04/02 03:13:51;;;;;;;20.20;18.55;;;6.20;99.90;;;;;;4880570;29;20049;-78
2021/04/02 03:16:20;;;;;;;19.90;18.10;;;6.00;99.90;;;;;;4896553;29;20157;-78
2021/04/02 03:18:50;;;;;;;19.38;17.77;;;6.00;99.90;;;;;;4878373;29;20060;-78
2021/04/02 03:21:18;;;;;;;20.33;18.63;;;6.10;99.90;;;;;;4878261;29;20061;-78
2021/04/02 03:23:50;;;;;;;20.45;18.30;;;6.00;99.90;;;;;;4878466;29;20519;-78
2021/04/02 03:26:18;;;;;;;18.60;17.02;;;6.10;99.90;;;;;;4893599;29;20067;-77
2021/04/02 03:28:47;;;;;;;20.30;18.27;;;6.20;99.90;;;;;;4878440;29;20084;-78
2021/04/02 03:31:15;;;;;;;19.38;17.77;;;6.30;99.90;;;;;;4879938;29;20060;-79
2021/04/02 03:33:50;;;;;;;24.27;17.92;;;6.30;99.90;;;;;;4925975;29;20060;-79
2021/04/02 03:36:26;;;;;;;20.42;17.73;;;6.20;99.90;;;;;;4889946;29;20048;-78
2021/04/02 03:38:58;;;;;;;22.52;19.27;;;6.20;99.90;;;;;;4885100;29;20076;-78
2021/04/02 03:41:33;;;;;;;21.58;19.33;;;6.20;99.90;;;;;;4873463;29;20056;-78
2021/04/02 03:44:05;;;;;;;21.48;18.63;;;6.20;99.90;;;;;;4893267;29;20108;-78
2021/04/02 03:46:34;;;;;;;23.67;18.55;;;6.10;99.90;;;;;;4908131;29;20465;-79
2021/04/02 03:49:03;;;;;;;20.42;18.17;;;6.10;99.90;;;;;;4882258;29;20137;-78
2021/04/02 03:51:37;;;;;;;21.10;17.55;;;6.10;99.90;;;;;;4899706;29;20049;-79
2021/04/02 03:54:06;;;;;;;24.20;20.17;;;6.10;99.90;;;;;;4862732;29;20213;-78
2021/04/02 03:56:36;;;;;;;28.15;21.55;;;5.80;99.90;;;;;;4877205;29;20053;-78
2021/04/02 03:59:06;;;;;;;28.83;22.23;;;5.70;99.90;;;;;;4870486;29;20079;-77
2021/04/02 04:01:41;;;;;;;30.10;21.20;;;5.70;99.90;;;;;;4889152;29;20509;-77
2021/04/02 04:04:09;;;;;;;27.10;21.08;;;5.70;99.90;;;;;;4910011;29;20116;-78
2021/04/02 04:06:41;;;;;;;27.30;20.92;;;5.70;99.90;;;;;;4899800;29;20116;-78
2021/04/02 04:09:13;;;;;;;33.80;22.42;;;5.70;99.90;;;;;;4910176;29;20056;-78
2021/04/02 04:11:42;;;;;;;24.33;21.38;;;5.70;99.90;;;;;;4894431;29;20084;-78
2021/04/02 04:14:12;;;;;;;28.90;22.30;;;5.70;99.90;;;;;;4880844;29;20072;-78
2021/04/02 04:16:41;;;;;;;37.83;21.60;;;5.70;99.90;;;;;;4881749;29;20231;-78
2021/04/02 04:19:11;;;;;;;29.27;20.95;;;5.80;99.90;;;;;;4913789;29;20147;-79
2021/04/02 04:21:45;;;;;;;26.90;20.10;;;5.70;99.90;;;;;;4880938;29;20056;-78
2021/04/02 04:24:23;;;;;;;31.50;20.98;;;5.60;99.90;;;;;;4862595;29;20065;-79
2021/04/02 04:26:52;;;;;;;34.08;22.00;;;5.50;99.90;;;;;;4891053;29;20057;-78
2021/04/02 04:29:22;;;;;;;28.00;19.92;;;5.40;99.90;;;;;;4907504;29;20499;-79
2021/04/02 04:31:50;;;;;;;29.80;21.77;;;5.40;99.90;;;;;;4911519;29;20051;-80
2021/04/02 04:34:18;;;;;;;31.83;21.65;;;5.30;99.90;;;;;;4893079;29;20075;-78
2021/04/02 04:36:46;;;;;;;27.10;19.65;;;5.30;99.90;;;;;;4893792;29;20159;-80
2021/04/02 04:39:14;;;;;;;28.60;21.42;;;5.30;99.90;;;;;;4910598;29;20084;-79
2021/04/02 04:41:42;;;;;;;30.88;20.77;;;5.30;99.90;;;;;;4879322;29;20049;-79
2021/04/02 04:44:10;;;;;;;32.83;22.52;;;5.30;99.90;;;;;;4879273;29;20548;-78
2021/04/02 04:46:37;;;;;;;34.63;22.95;;;5.10;99.90;;;;;;4879722;29;20132;-81
2021/04/02 04:49:04;;;;;;;38.92;22.88;;;5.00;99.90;;;;;;4893009;29;20096;-81
2021/04/02 04:51:33;;;;;;;36.88;23.10;;;4.90;99.90;;;;;;4913978;29;20136;-81
2021/04/02 04:54:00;;;;;;;34.67;21.98;;;4.90;99.90;;;;;;4914641;29;20500;-81
2021/04/02 04:56:29;;;;;;;35.08;22.88;;;5.00;99.90;;;;;;4899111;29;20080;-81
2021/04/02 04:59:00;;;;;;;36.20;22.67;;;5.00;99.90;;;;;;4899910;29;20068;-80
2021/04/02 05:01:33;;;;;;;33.03;22.52;;;4.90;99.90;;;;;;4912195;29;20138;-82
2021/04/02 05:04:02;;;;;;;34.47;21.85;;;5.00;99.90;;;;;;4904620;29;20067;-81
2021/04/02 05:06:31;;;;;;;39.80;22.98;;;4.90;99.90;;;;;;4880362;29;20059;-81
2021/04/02 05:09:01;;;;;;;38.08;23.13;;;4.80;99.90;;;;;;4907176;29;20084;-80
2021/04/02 05:11:30;;;;;;;45.40;26.10;;;4.80;99.90;;;;;;4887014;29;20068;-82
2021/04/02 05:13:57;;;;;;;36.28;24.20;;;4.80;99.90;;;;;;4908985;29;20131;-81
2021/04/02 05:16:24;;;;;;;34.90;24.08;;;4.80;99.90;;;;;;4912576;29;20048;-80
2021/04/02 05:18:52;;;;;;;38.25;22.38;;;4.80;99.90;;;;;;4898467;29;20047;-81
2021/04/02 05:21:18;;;;;;;35.00;21.23;;;4.80;99.90;;;;;;4895144;29;20167;-81
2021/04/02 05:23:46;;;;;;;36.45;23.17;;;4.80;99.90;;;;;;4882922;29;20270;-81
2021/04/02 05:26:13;;;;;;;32.20;21.95;;;4.70;99.90;;;;;;4910074;29;20071;-81
2021/04/02 05:28:40;;;;;;;34.42;22.83;;;4.70;99.90;;;;;;4880958;29;20465;-81
2021/04/02 05:31:07;;;;;;;33.70;22.48;;;4.70;99.90;;;;;;4896207;29;20068;-81
2021/04/02 05:33:33;;;;;;;33.38;21.73;;;4.70;99.90;;;;;;4906710;29;20081;-82
2021/04/02 05:36:00;;;;;;;32.00;22.25;;;4.70;99.90;;;;;;4891518;29;20111;-80
2021/04/02 05:38:26;;;;;;;30.45;22.58;;;4.70;99.90;;;;;;4907831;29;20056;-82
2021/04/02 05:41:12;;;;;;;32.70;23.33;;;4.70;99.90;;;;;;4884577;29;20640;-81
2021/04/02 05:43:55;;;;;;;31.02;22.33;;;4.70;99.90;;;;;;4883364;29;20171;-83
2021/04/02 05:46:24;;;;;;;32.85;22.42;;;4.80;99.90;;;;;;4911454;29;20075;-81
2021/04/02 05:49:10;;;;;;;29.05;22.13;;;4.80;99.90;;;;;;4895519;29;20087;-82
2021/04/02 05:51:37;;;;;;;29.48;22.08;;;4.80;99.90;;;;;;4876805;29;20067;-81
2021/04/02 05:54:08;;;;;;;35.30;22.73;;;4.80;99.90;;;;;;4913769;29;20056;-81
2021/04/02 05:56:35;;;;;;;33.03;23.23;;;4.80;99.90;;;;;;4897400;29;20052;-82
2021/04/02 05:59:02;;;;;;;31.00;21.85;;;4.80;99.90;;;;;;4877994;29;20081;-81
2021/04/02 06:01:30;;;;;;;26.90;20.92;;;4.80;99.90;;;;;;4888682;29;20119;-81
2021/04/02 06:03:57;;;;;;;27.17;21.60;;;4.90;99.90;;;;;;4912032;29;20088;-80
2021/04/02 06:06:24;;;;;;;28.98;22.13;;;4.80;99.90;;;;;;4897343;29;20461;-81
2021/04/02 06:08:52;;;;;;;25.70;21.73;;;4.60;99.90;;;;;;4898171;29;20483;-80
2021/04/02 06:11:18;;;;;;;28.35;21.92;;;4.60;99.90;;;;;;4881178;29;20052;-83
2021/04/02 06:13:45;;;;;;;29.10;20.52;;;4.60;99.90;;;;;;4915049;29;20060;-82
2021/04/02 06:16:12;;;;;;;29.20;22.45;;;4.50;99.90;;;;;;4897825;29;20051;-81
2021/04/02 06:18:42;;;;;;;27.13;20.65;;;4.60;99.90;;;;;;4880636;29;20083;-81
2021/04/02 06:21:09;;;;;;;26.05;20.73;;;4.70;99.90;;;;;;4880617;29;20056;-82
2021/04/02 06:23:37;;;;;;;27.67;21.13;;;4.60;99.90;;;;;;4898739;29;20123;-82
2021/04/02 06:26:13;;;;;;;26.48;20.65;;;4.60;99.90;;;;;;4912750;29;20116;-81
2021/04/02 06:28:42;;;;;;;30.60;21.73;;;4.60;99.90;;;;;;4910036;29;20162;-82
2021/04/02 06:31:15;;;;;;;23.92;20.80;;;4.60;99.90;;;;;;4886655;29;20051;-81
2021/04/02 06:33:52;;;;;;;23.90;19.95;;;4.70;99.90;;;;;;4893245;29;20572;-82
2021/04/02 06:36:28;;;;;;;23.45;20.20;;;4.70;99.90;;;;;;4893668;29;20277;-81
2021/04/02 06:39:02;;;;;;;27.58;19.33;;;4.70;99.90;;;;;;4906681;29;20229;-82
2021/04/02 06:41:30;;;;;;;23.65;18.23;;;4.70;99.90;;;;;;4911048;29;20067;-82
2021/04/02 06:43:59;;;;;;;23.33;19.85;;;4.80;99.90;;;;;;4897777;29;20150;-82
2021/04/02 06:46:28;;;;;;;21.48;17.88;;;4.80;99.90;;;;;;4879437;29;20106;-83
2021/04/02 06:48:56;;;;;;;23.20;19.70;;;4.90;99.90;;;;;;4909669;29;20051;-81
2021/04/02 06:51:24;;;;;;;24.25;19.58;;;4.90;99.90;;;;;;4883791;29;20048;-80
2021/04/02 06:53:54;;;;;;;23.20;20.30;;;4.90;99.90;;;;;;4897589;29;20048;-80
2021/04/02 06:56:21;;;;;;;25.55;20.52;;;5.00;99.90;;;;;;4895431;29;20056;-80
2021/04/02 06:58:49;;;;;;;25.48;20.35;;;4.90;99.90;;;;;;4883044;29;20056;-79
2021/04/02 07:01:17;;;;;;;24.33;21.23;;;5.00;99.90;;;;;;4888862;29;20143;-80
2021/04/02 07:03:44;;;;;;;23.65;19.67;;;5.10;99.90;;;;;;4893733;29;20588;-78
2021/04/02 07:06:15;;;;;;;25.73;21.33;;;5.10;99.90;;;;;;4914330;29;20089;-78
2021/04/02 07:08:47;;;;;;;23.20;19.75;;;5.20;99.90;;;;;;4900890;29;20076;-79
2021/04/02 07:11:14;;;;;;;21.52;18.20;;;5.40;99.90;;;;;;4877343;29;20615;-79
2021/04/02 07:13:49;;;;;;;24.85;19.90;;;5.40;99.90;;;;;;4861502;29;20083;-79
2021/04/02 07:16:20;;;;;;;20.67;17.20;;;5.50;99.90;;;;;;4861356;29;20078;-79
2021/04/02 07:18:47;;;;;;;24.25;17.65;;;5.40;99.90;;;;;;4868258;29;20149;-81
2021/04/02 07:21:16;;;;;;;21.75;17.73;;;5.40;99.90;;;;;;4859559;29;20076;-80
2021/04/02 07:23:42;;;;;;;25.85;18.48;;;5.30;99.90;;;;;;4859337;29;20129;-79
2021/04/02 07:26:10;;;;;;;25.20;16.63;;;5.10;99.90;;;;;;4860095;29;20112;-78
2021/04/02 07:28:40;;;;;;;23.15;18.42;;;5.10;99.90;;;;;;4893772;29;20140;-79
2021/04/02 07:31:07;;;;;;;23.15;18.58;;;5.10;99.90;;;;;;4894294;29;20060;-79
2021/04/02 07:33:36;;;;;;;20.83;17.13;;;5.00;99.90;;;;;;4888971;29;20082;-80
2021/04/02 07:36:05;;;;;;;22.30;18.35;;;5.10;99.90;;;;;;4886940;29;20120;-80
2021/04/02 07:38:33;;;;;;;24.80;19.23;;;5.10;99.90;;;;;;4897655;29;20131;-79
2021/04/02 07:41:11;;;;;;;26.23;18.65;;;5.10;99.90;;;;;;4876895;29;20164;-79
2021/04/02 07:43:54;;;;;;;23.08;19.33;;;5.20;99.90;;;;;;4878405;29;20112;-80
2021/04/02 07:46:28;;;;;;;24.85;20.15;;;5.20;99.90;;;;;;4874644;29;20060;-80
2021/04/02 07:49:08;;;;;;;22.35;18.35;;;5.30;99.90;;;;;;4898592;29;20080;-79
2021/04/02 07:51:46;;;;;;;20.92;16.55;;;5.30;99.90;;;;;;4883412;29;20512;-80
2021/04/02 07:54:21;;;;;;;22.25;17.80;;;5.40;99.90;;;;;;4914704;29;20078;-79
2021/04/02 07:56:54;;;;;;;24.35;17.67;;;5.50;99.90;;;;;;4882929;29;20565;-79
2021/04/02 07:59:36;;;;;;;26.02;18.88;;;5.50;99.90;;;;;;4900411;29;20060;-80
2021/04/02 08:02:05;;;;;;;22.35;18.30;;;5.50;99.90;;;;;;4897628;29;20084;-79
2021/04/02 08:04:39;;;;;;;24.02;18.80;;;5.50;99.90;;;;;;4914639;29;20127;-80
2021/04/02 08:07:14;;;;;;;27.02;19.92;;;5.60;99.90;;;;;;4886947;29;20099;-80
2021/04/02 08:09:42;;;;;;;22.40;18.80;;;5.60;99.90;;;;;;4909819;29;20063;-79
2021/04/02 08:12:30;;;;;;;23.35;19.15;;;5.70;99.90;;;;;;4902518;29;20044;-79
2021/04/02 08:15:02;;;;;;;24.88;18.13;;;5.60;99.90;;;;;;4898521;29;20468;-82
2021/04/02 08:17:28;;;;;;;20.55;16.52;;;5.40;99.90;;;;;;4864979;29;20080;-81
2021/04/02 08:20:17;;;;;;;22.15;17.60;;;5.40;99.90;;;;;;4901155;29;20148;-80
2021/04/02 08:22:49;;;;;;;16.80;15.00;;;5.50;99.90;;;;;;4911609;29;20052;-79
2021/04/02 08:25:18;;;;;;;18.85;17.02;;;5.60;99.90;;;;;;4898128;29;20075;-79
2021/04/02 08:27:45;;;;;;;17.95;16.15;;;5.60;99.90;;;;;;4884115;29;20087;-78
2021/04/02 08:30:14;;;;;;;18.08;15.95;;;5.60;99.90;;;;;;4905426;29;20062;-81
2021/04/02 08:32:45;;;;;;;17.67;15.88;;;5.60;99.90;;;;;;4877204;29;20075;-79
2021/04/02 08:35:14;;;;;;;16.70;14.88;;;5.70;99.90;;;;;;4911300;29;20112;-80
2021/04/02 08:37:59;;;;;;;17.67;15.90;;;5.80;99.90;;;;;;4888057;29;20063;-80
2021/04/02 08:40:25;;;;;;;16.65;14.75;;;5.70;99.90;;;;;;4884392;29;20143;-79
2021/04/02 08:43:00;;;;;;;17.08;15.38;;;5.90;99.90;;;;;;4885215;29;20470;-79
2021/04/02 08:45:36;;;;;;;18.42;15.73;;;5.80;99.90;;;;;;4897501;29;20048;-80
2021/04/02 08:48:03;;;;;;;18.05;15.48;;;5.80;99.90;;;;;;4901348;29;20060;-80
2021/04/02 08:50:30;;;;;;;16.17;14.55;;;5.80;99.90;;;;;;4897103;29;20235;-80
2021/04/02 08:53:09;;;;;;;16.73;14.88;;;6.00;99.90;;;;;;4897136;29;20039;-79
2021/04/02 08:55:42;;;;;;;15.60;14.00;;;6.00;99.90;;;;;;4911082;29;20202;-78
2021/04/02 08:58:08;;;;;;;17.00;15.40;;;6.20;99.90;;;;;;4894516;29;20057;-79
2021/04/02 09:00:35;;;;;;;17.95;16.10;;;6.10;99.90;;;;;;4906312;29;20107;-78
2021/04/02 09:03:02;;;;;;;17.27;15.68;;;6.20;99.90;;;;;;4899842;29;20512;-79
2021/04/02 09:05:28;;;;;;;16.00;14.57;;;6.30;99.90;;;;;;4905849;29;20567;-78
2021/04/02 09:07:58;;;;;;;19.80;15.70;;;6.50;99.90;;;;;;4909552;29;20511;-79
2021/04/02 09:10:25;;;;;;;17.58;15.88;;;6.40;99.90;;;;;;4916828;29;20520;-78
2021/04/02 09:12:54;;;;;;;17.20;15.52;;;6.60;99.90;;;;;;4899830;29;20067;-80
2021/04/02 09:15:23;;;;;;;16.80;15.38;;;6.70;99.90;;;;;;4900900;29;20155;-79
2021/04/02 09:17:49;;;;;;;19.58;17.23;;;6.90;99.90;;;;;;4915109;29;20111;-79
2021/04/02 09:20:17;;;;;;;18.30;16.50;;;7.00;99.90;;;;;;4922835;29;20418;-78
2021/04/02 09:22:45;;;;;;;19.25;17.33;;;6.80;99.90;;;;;;4916507;29;20526;-79
2021/04/02 09:25:17;;;;;;;21.45;18.45;;;6.70;99.90;;;;;;4900438;29;20072;-80
2021/04/02 09:27:44;;;;;;;20.05;17.88;;;6.90;99.90;;;;;;4901928;29;20048;-79
2021/04/02 09:30:24;;;;;;;18.42;16.73;;;7.10;99.90;;;;;;4900322;29;20086;-79
2021/04/02 09:32:52;;;;;;;20.92;18.30;;;7.10;99.90;;;;;;4903429;29;20124;-79
2021/04/02 09:35:20;;;;;;;21.25;17.45;;;7.30;99.90;;;;;;4912876;29;20099;-81
2021/04/02 09:37:48;;;;;;;19.75;17.90;;;7.40;99.90;;;;;;4888383;29;20413;-80
2021/04/02 09:40:16;;;;;;;21.80;18.98;;;7.60;99.90;;;;;;4917848;29;20076;-78
2021/04/02 09:42:46;;;;;;;21.55;18.92;;;7.80;99.90;;;;;;4892154;29;20084;-81
2021/04/02 09:45:13;;;;;;;23.38;20.02;;;7.80;99.90;;;;;;4883112;29;20049;-78
2021/04/02 09:47:48;;;;;;;22.15;19.85;;;7.60;99.90;;;;;;4894725;29;20068;-79
2021/04/02 09:50:17;;;;;;;22.42;19.77;;;7.40;99.90;;;;;;4900216;29;20220;-80
2021/04/02 09:52:44;;;;;;;21.95;19.38;;;7.50;99.90;;;;;;4899204;29;20143;-79
2021/04/02 09:55:13;;;;;;;24.63;21.08;;;7.50;99.90;;;;;;4898774;29;20052;-78
2021/04/02 09:57:40;;;;;;;26.30;19.92;;;7.60;99.90;;;;;;4899829;29;20127;-79
2021/04/02 10:00:08;;;;;;;22.85;20.17;;;7.90;99.90;;;;;;4901079;29;20634;-80
2021/04/02 10:02:35;;;;;;;21.15;18.90;;;8.00;99.90;;;;;;4931005;29;20052;-79
2021/04/02 10:05:04;;;;;;;21.10;18.98;;;7.70;99.90;;;;;;4924800;29;20048;-78
2021/04/02 10:07:30;;;;;;;21.75;17.83;;;7.70;99.90;;;;;;4900671;29;20706;-81
2021/04/02 10:09:57;;;;;;;21.63;19.20;;;7.70;99.90;;;;;;4897178;29;20444;-81
2021/04/02 10:12:23;;;;;;;23.17;19.35;;;7.60;99.90;;;;;;4900140;29;20059;-80
2021/04/02 10:14:49;;;;;;;19.33;17.35;;;7.50;99.90;;;;;;4896949;29;20060;-79
2021/04/02 10:17:16;;;;;;;20.00;17.92;;;7.60;99.90;;;;;;4895393;29;20147;-79
2021/04/02 10:19:44;;;;;;;18.98;16.85;;;7.80;99.90;;;;;;4894621;29;20163;-78
2021/04/02 10:22:10;;;;;;;21.08;17.70;;;8.20;99.90;;;;;;4927655;29;20119;-79
2021/04/02 10:24:36;;;;;;;20.25;18.20;;;8.50;99.90;;;;;;4885320;29;20063;-80
2021/04/02 10:27:03;;;;;;;19.73;17.65;;;8.40;99.90;;;;;;4903672;29;20599;-79
2021/04/02 10:29:31;;;;;;;19.67;17.88;;;8.30;99.90;;;;;;4902663;29;20666;-77
2021/04/02 10:31:57;;;;;;;19.05;17.33;;;8.20;99.90;;;;;;4919353;29;20087;-80
2021/04/02 10:34:24;;;;;;;18.75;17.10;;;8.50;99.90;;;;;;4879547;29;20059;-79
2021/04/02 10:36:51;;;;;;;19.95;18.25;;;8.50;99.90;;;;;;4884256;29;20140;-79
2021/04/02 10:39:18;;;;;;;19.58;17.85;;;8.40;99.90;;;;;;4902965;29;20119;-80
2021/04/02 10:41:44;;;;;;;20.35;18.67;;;8.10;99.90;;;;;;4890948;29;20048;-80
2021/04/02 10:44:10;;;;;;;17.90;16.40;;;8.40;99.90;;;;;;4897314;29;20050;-79
2021/04/02 10:46:37;;;;;;;18.55;16.63;;;9.00;99.90;;;;;;4862526;29;20081;-79
2021/04/02 10:49:04;;;;;;;18.27;16.77;;;9.30;99.90;;;;;;4912003;29;20154;-79
2021/04/02 10:51:30;;;;;;;20.88;18.73;;;9.40;99.90;;;;;;4880186;29;20199;-78
2021/04/02 10:54:03;;;;;;;17.33;15.88;;;9.40;99.90;;;;;;4912702;29;20056;-78
2021/04/02 10:56:33;;;;;;;17.05;15.60;;;9.50;99.90;;;;;;4897842;29;20108;-78
2021/04/02 10:59:00;;;;;;;17.63;15.95;;;9.40;99.90;;;;;;4887084;29;20056;-79
2021/04/02 11:01:27;;;;;;;18.23;16.48;;;9.30;99.90;;;;;;4903735;29;20135;-79
2021/04/02 11:03:54;;;;;;;18.73;14.90;;;9.70;99.90;;;;;;4888877;29;20151;-78
2021/04/02 11:06:20;;;;;;;17.10;15.73;;;9.40;99.90;;;;;;4898084;29;20088;-80
2021/04/02 11:08:47;;;;;;;24.55;18.23;;;9.20;99.90;;;;;;4892804;29;20143;-79
2021/04/02 11:11:13;;;;;;;16.92;15.40;;;9.30;99.90;;;;;;4886879;29;20116;-78
2021/04/02 11:13:40;;;;;;;18.02;16.42;;;9.50;99.90;;;;;;4903389;29;20155;-80
2021/04/02 11:16:06;;;;;;;19.05;17.25;;;9.30;99.90;;;;;;4891892;29;20052;-79
2021/04/02 11:18:32;;;;;;;19.20;17.15;;;9.00;99.90;;;;;;4910706;29;20432;-79
2021/04/02 11:20:59;;;;;;;17.70;16.15;;;9.10;99.90;;;;;;4910754;29;20450;-79
2021/04/02 11:23:27;;;;;;;17.55;16.25;;;9.30;99.90;;;;;;4897506;29;20223;-79
2021/04/02 11:25:55;;;;;;;16.90;15.35;;;9.70;99.90;;;;;;4897293;29;20421;-80
2021/04/02 11:28:22;;;;;;;18.23;16.73;;;9.40;99.90;;;;;;4899796;29;20052;-79
2021/04/02 11:30:49;;;;;;;16.73;15.35;;;8.70;99.90;;;;;;4930297;29;20091;-80
2021/04/02 11:33:15;;;;;;;17.17;15.55;;;8.40;99.90;;;;;;4907406;29;20514;-79
2021/04/02 11:35:41;;;;;;;17.33;15.52;;;8.30;99.90;;;;;;4893664;29;20140;-78
2021/04/02 11:38:08;;;;;;;16.52;15.07;;;8.50;99.90;;;;;;4899913;29;20052;-79
2021/04/02 11:40:37;;;;;;;16.42;15.13;;;9.10;99.90;;;;;;4897927;29;20051;-79
2021/04/02 11:43:04;;;;;;;16.17;14.88;;;9.20;99.90;;;;;;4883222;29;20484;-80
2021/04/02 11:45:30;;;;;;;15.70;14.45;;;9.60;99.90;;;;;;4913116;29;20079;-81
2021/04/02 11:47:57;;;;;;;17.95;16.27;;;9.10;99.90;;;;;;4912450;29;20147;-82
2021/04/02 11:50:24;;;;;;;16.05;14.57;;;9.30;99.90;;;;;;4895716;29;20788;-81
2021/04/02 11:52:51;;;;;;;15.98;14.55;;;9.60;99.90;;;;;;4911956;29;20154;-81
2021/04/02 11:55:20;;;;;;;16.05;14.73;;;9.40;99.90;;;;;;4878147;29;20151;-79
2021/04/02 11:57:46;;;;;;;17.58;16.00;;;9.20;99.90;;;;;;4896724;29;20052;-81
2021/04/02 12:00:17;;;;;;;17.83;16.25;;;9.20;99.90;;;;;;4887678;29;20131;-81
2021/04/02 12:02:44;;;;;;;16.55;15.20;;;9.50;99.90;;;;;;4912517;29;20060;-82
2021/04/02 12:05:12;;;;;;;15.88;14.65;;;9.50;99.90;;;;;;4901039;29;20143;-80
2021/04/02 12:07:38;;;;;;;16.23;14.93;;;9.10;99.90;;;;;;4889809;29;20056;-80
2021/04/02 12:10:06;;;;;;;17.75;15.90;;;8.90;99.90;;;;;;4896115;29;20139;-80
2021/04/02 12:12:33;;;;;;;16.55;14.88;;;8.80;99.90;;;;;;4879668;29;20044;-81
2021/04/02 12:15:00;;;;;;;16.30;14.98;;;8.60;99.90;;;;;;4896579;29;20108;-82
2021/04/02 12:17:26;;;;;;;21.08;15.43;;;8.60;99.90;;;;;;4880379;29;20104;-82
2021/04/02 12:19:53;;;;;;;17.50;15.80;;;9.00;99.90;;;;;;4897226;29;20569;-81
2021/04/02 12:22:19;;;;;;;17.35;15.70;;;8.90;99.90;;;;;;4890049;29;20135;-83
2021/04/02 12:24:45;;;;;;;16.75;15.20;;;8.50;99.90;;;;;;4892264;29;20080;-80
2021/04/02 12:27:12;;;;;;;16.38;14.73;;;8.50;99.90;;;;;;4903553;29;20060;-83
2021/04/02 12:29:38;;;;;;;16.20;14.65;;;8.50;99.90;;;;;;4897693;29;20124;-81
2021/04/02 12:32:05;;;;;;;17.23;15.70;;;8.20;99.90;;;;;;4895758;29;20068;-82
2021/04/02 12:34:31;;;;;;;16.33;14.80;;;8.10;99.90;;;;;;4896009;29;20107;-81
2021/04/02 12:36:58;;;;;;;17.20;15.77;;;8.20;99.90;;;;;;4883171;29;20052;-82
2021/04/02 12:39:24;;;;;;;17.75;16.17;;;7.80;99.90;;;;;;4883753;29;20051;-81
2021/04/02 12:41:50;;;;;;;18.60;16.75;;;7.40;99.90;;;;;;4888265;29;20120;-80
2021/04/02 12:44:17;;;;;;;17.15;15.75;;;7.60;99.90;;;;;;4881229;29;20151;-82
2021/04/02 12:46:43;;;;;;;15.57;13.95;;;7.50;99.90;;;;;;4912176;29;20074;-80